Terminal Aerodrome Forecast
Issued by NWS

Home | Current Version | Previous Version | Text Only | Print | Product List | Glossary Off
Versions: 1 2 3 4 5 6 7 8 9 10 11 12 13 14 15 16 17 18 19 20 21 22

000
FTUS43 KABR 200834 AAA
TAFATY
TAF AMD
KATY 200834Z 2009/2106 04004KT 3SM BR SCT250
      TEMPO 2009/2011 3/4SM BR VV002
     FM201200 05006KT P6SM SCT250
     FM202100 11008KT P6SM BKN200=

USA.gov is the U.S. government's official web portal to all federal, state and local government web resources and services.